createdAt,value
2023-04-21T00:01:35.758Z,27.17
2023-04-21T00:04:02.766Z,24.60
2023-04-21T00:06:31.255Z,26.08
2023-04-21T00:08:57.962Z,26.67
2023-04-21T00:11:24.745Z,29.17
2023-04-21T00:13:51.357Z,25.52
2023-04-21T00:16:18.078Z,25.95
2023-04-21T00:18:44.778Z,27.20
2023-04-21T00:21:11.406Z,25.67
2023-04-21T00:23:38.045Z,26.13
2023-04-21T00:26:04.813Z,27.83
2023-04-21T00:28:31.493Z,25.65
2023-04-21T00:30:58.203Z,25.45
2023-04-21T00:33:24.940Z,24.60
2023-04-21T00:35:51.540Z,19.33
2023-04-21T00:38:18.203Z,26.20
2023-04-21T00:40:44.853Z,24.20
2023-04-21T00:43:11.572Z,24.63
2023-04-21T00:45:38.268Z,24.83
2023-04-21T00:48:05.228Z,27.17
2023-04-21T00:50:32.998Z,22.75
2023-04-21T00:53:00.390Z,32.42
2023-04-21T00:55:27.055Z,24.38
2023-04-21T00:57:56.438Z,24.15
2023-04-21T01:00:23.435Z,24.05
2023-04-21T01:02:50.384Z,27.88
2023-04-21T01:05:18.115Z,23.20
2023-04-21T01:07:44.936Z,28.40
2023-04-21T01:10:11.764Z,27.10
2023-04-21T01:12:45.784Z,25.30
2023-04-21T01:15:13.977Z,23.40
2023-04-21T01:17:41.576Z,25.85
2023-04-21T01:20:13.309Z,27.27
2023-04-21T01:22:47.830Z,22.65
2023-04-21T01:25:14.984Z,25.38
2023-04-21T01:27:41.630Z,24.52
2023-04-21T01:30:09.930Z,24.33
2023-04-21T01:32:37.083Z,23.58
2023-04-21T01:35:04.114Z,23.50
2023-04-21T01:37:32.168Z,22.23
2023-04-21T01:40:01.354Z,25.38
2023-04-21T01:42:29.579Z,22.90
2023-04-21T01:44:56.979Z,26.10
2023-04-21T01:47:25.237Z,24.55
2023-04-21T01:49:52.433Z,24.85
2023-04-21T01:52:19.305Z,22.17
2023-04-21T01:54:46.132Z,22.23
2023-04-21T01:57:12.888Z,25.90
2023-04-21T01:59:39.865Z,22.02
2023-04-21T02:02:06.695Z,26.67
2023-04-21T02:04:33.628Z,21.67
2023-04-21T02:07:00.510Z,21.00
2023-04-21T02:09:27.198Z,23.02
2023-04-21T02:11:57.094Z,23.85
2023-04-21T02:14:25.028Z,19.63
2023-04-21T02:16:51.732Z,22.23
2023-04-21T02:19:18.801Z,23.20
2023-04-21T02:21:45.649Z,21.83
2023-04-21T02:24:12.496Z,22.85
2023-04-21T02:26:39.204Z,21.75
2023-04-21T02:29:07.099Z,21.13
2023-04-21T02:31:40.389Z,23.88
2023-04-21T02:34:13.090Z,23.45
2023-04-21T02:36:39.812Z,23.67
2023-04-21T02:39:06.527Z,22.42
2023-04-21T02:41:33.183Z,21.38
2023-04-21T02:43:59.822Z,24.02
2023-04-21T02:46:26.502Z,27.00
2023-04-21T02:48:53.187Z,24.63
2023-04-21T02:51:19.841Z,24.95
2023-04-21T02:53:46.462Z,24.20
2023-04-21T02:56:13.197Z,26.92
2023-04-21T02:58:40.023Z,24.95
2023-04-21T03:01:06.973Z,22.88
2023-04-21T03:03:33.992Z,22.25
2023-04-21T03:06:02.629Z,30.10
2023-04-21T03:08:31.059Z,26.65
2023-04-21T03:10:58.354Z,27.45
2023-04-21T03:13:25.055Z,23.33
2023-04-21T03:15:52.274Z,21.83
2023-04-21T03:18:19.103Z,27.08
2023-04-21T03:20:45.758Z,28.00
2023-04-21T03:23:12.439Z,25.67
2023-04-21T03:25:39.354Z,25.17
2023-04-21T03:28:06.226Z,25.63
2023-04-21T03:30:33.082Z,28.40
2023-04-21T03:33:00.060Z,24.15
2023-04-21T03:35:27.172Z,23.17
2023-04-21T03:37:53.806Z,23.92
2023-04-21T03:40:20.622Z,26.17
2023-04-21T03:42:47.264Z,24.42
2023-04-21T03:45:14.049Z,20.45
2023-04-21T03:47:40.764Z,23.65
2023-04-21T03:50:07.967Z,20.67
2023-04-21T03:52:34.565Z,21.45
2023-04-21T03:55:01.425Z,27.63
2023-04-21T03:57:28.146Z,25.08
2023-04-21T03:59:54.806Z,29.25
2023-04-21T04:02:21.576Z,28.30
2023-04-21T04:04:49.008Z,25.85
2023-04-21T04:07:17.482Z,26.17
2023-04-21T04:09:44.567Z,26.63
2023-04-21T04:12:11.937Z,22.65
2023-04-21T04:14:39.419Z,25.63
2023-04-21T04:17:06.047Z,25.90
2023-04-21T04:19:32.801Z,24.98
2023-04-21T04:22:02.688Z,22.80
2023-04-21T04:24:29.594Z,23.05
2023-04-21T04:26:57.870Z,25.60
2023-04-21T04:29:24.635Z,25.08
2023-04-21T04:31:51.543Z,25.40
2023-04-21T04:34:18.709Z,23.42
2023-04-21T04:36:46.149Z,22.38
2023-04-21T04:39:12.819Z,24.02
2023-04-21T04:41:39.863Z,25.40
2023-04-21T04:44:06.569Z,23.55
2023-04-21T04:46:33.792Z,27.27
2023-04-21T04:49:01.366Z,31.40
2023-04-21T04:51:28.238Z,23.80
2023-04-21T04:53:54.802Z,22.75
2023-04-21T04:56:22.020Z,30.42
2023-04-21T04:58:48.716Z,22.20
2023-04-21T05:01:18.913Z,25.10
2023-04-21T05:03:45.987Z,24.58
2023-04-21T05:06:13.978Z,24.58
2023-04-21T05:08:41.456Z,29.05
2023-04-21T05:11:08.937Z,25.98
2023-04-21T05:13:37.463Z,24.80
2023-04-21T05:16:06.480Z,31.90
2023-04-21T05:18:33.894Z,25.27
2023-04-21T05:21:01.472Z,27.30
2023-04-21T05:23:28.758Z,23.08
2023-04-21T05:25:55.734Z,24.10
2023-04-21T05:28:23.133Z,25.70
2023-04-21T05:30:49.723Z,25.15
2023-04-21T05:33:19.568Z,23.90
2023-04-21T05:35:46.754Z,25.50
2023-04-21T05:38:13.558Z,27.23
2023-04-21T05:40:40.277Z,29.85
2023-04-21T05:43:07.509Z,22.73
2023-04-21T05:45:38.527Z,24.65
2023-04-21T05:48:06.192Z,23.95
2023-04-21T05:50:36.022Z,21.15
2023-04-21T05:53:02.715Z,22.58
2023-04-21T05:55:30.116Z,23.95
2023-04-21T05:57:56.946Z,21.75
2023-04-21T06:00:27.276Z,19.63
2023-04-21T06:02:54.112Z,23.38
2023-04-21T06:05:21.397Z,19.67
2023-04-21T06:07:48.118Z,22.98
2023-04-21T06:10:18.800Z,20.48
2023-04-21T06:12:45.675Z,20.77
2023-04-21T06:15:12.377Z,20.00
2023-04-21T06:17:39.115Z,18.85
2023-04-21T06:20:06.707Z,20.83
2023-04-21T06:22:33.613Z,22.13
2023-04-21T06:25:00.680Z,21.23
2023-04-21T06:27:27.478Z,18.85
2023-04-21T06:29:55.771Z,22.60
2023-04-21T06:32:22.456Z,20.20
2023-04-21T06:34:49.116Z,19.10
2023-04-21T06:37:15.751Z,18.75
2023-04-21T06:39:42.426Z,23.60
2023-04-21T06:42:09.102Z,23.13
2023-04-21T06:44:35.710Z,21.88
2023-04-21T06:47:02.440Z,18.70
2023-04-21T06:49:29.230Z,18.60
2023-04-21T06:51:55.905Z,18.42
2023-04-21T06:54:22.616Z,17.30
2023-04-21T06:56:51.263Z,19.92
2023-04-21T06:59:18.134Z,18.85
2023-04-21T07:01:45.064Z,18.67
2023-04-21T07:04:11.792Z,20.77
2023-04-21T07:06:38.519Z,17.10
2023-04-21T07:09:05.875Z,19.13
2023-04-21T07:11:32.553Z,20.92
2023-04-21T07:14:02.095Z,20.45
2023-04-21T07:16:29.531Z,19.02
2023-04-21T07:18:56.905Z,21.63
2023-04-21T07:21:23.592Z,16.73
2023-04-21T07:23:50.334Z,18.75
2023-04-21T07:26:18.051Z,20.20
2023-04-21T07:28:44.690Z,19.70
2023-04-21T07:31:11.364Z,17.38
2023-04-21T07:33:38.019Z,17.77
2023-04-21T07:36:04.959Z,17.33
2023-04-21T07:38:31.648Z,18.23
2023-04-21T07:40:58.321Z,16.27
2023-04-21T07:43:26.756Z,19.33
2023-04-21T07:45:53.515Z,18.52
2023-04-21T07:48:20.300Z,19.48
2023-04-21T07:50:47.178Z,19.75
2023-04-21T07:53:13.876Z,21.65
2023-04-21T07:55:40.485Z,17.98
2023-04-21T07:58:07.382Z,18.00
2023-04-21T08:00:34.113Z,14.68
2023-04-21T08:03:00.873Z,16.58
2023-04-21T08:05:31.130Z,18.20
2023-04-21T08:08:00.283Z,18.27
2023-04-21T08:10:27.052Z,20.17
2023-04-21T08:12:53.744Z,22.05
2023-04-21T08:15:20.702Z,15.82
2023-04-21T08:17:47.452Z,18.70
2023-04-21T08:20:14.218Z,18.10
2023-04-21T08:22:41.046Z,17.00
2023-04-21T08:25:08.779Z,17.45
2023-04-21T08:27:39.031Z,16.98
2023-04-21T08:30:06.453Z,14.60
2023-04-21T08:32:33.572Z,15.95
2023-04-21T08:35:00.343Z,16.85
2023-04-21T08:37:27.107Z,16.20
2023-04-21T08:39:54.500Z,16.48
2023-04-21T08:42:21.183Z,12.55
2023-04-21T08:44:48.053Z,14.27
2023-04-21T08:47:15.713Z,14.63
2023-04-21T08:49:45.093Z,15.38
2023-04-21T08:52:13.836Z,14.80
2023-04-21T08:54:40.979Z,13.50
2023-04-21T08:57:15.096Z,14.20
2023-04-21T08:59:43.295Z,14.60
2023-04-21T09:02:13.172Z,15.35
2023-04-21T09:04:41.918Z,11.65
2023-04-21T09:07:09.225Z,15.23
2023-04-21T09:09:55.854Z,13.15
2023-04-21T09:12:23.381Z,11.93
2023-04-21T09:14:50.365Z,13.23
2023-04-21T09:17:18.578Z,11.30
2023-04-21T09:19:45.404Z,13.48
2023-04-21T09:22:17.125Z,11.32
2023-04-21T09:24:48.695Z,11.13
2023-04-21T09:27:17.195Z,12.80
2023-04-21T09:29:49.114Z,14.45
2023-04-21T09:32:19.851Z,11.68
2023-04-21T09:34:47.211Z,13.38
2023-04-21T09:37:16.633Z,12.68
2023-04-21T09:40:03.341Z,12.98
2023-04-21T09:42:32.795Z,12.88
2023-04-21T09:47:39.586Z,11.57
2023-04-21T09:52:37.812Z,11.35
2023-04-21T09:55:10.879Z,10.25
2023-04-21T09:57:41.286Z,11.63
2023-04-21T10:00:12.021Z,11.73
2023-04-21T10:02:48.528Z,11.43
2023-04-21T10:05:16.553Z,12.45
2023-04-21T10:07:45.112Z,11.57
2023-04-21T10:10:22.513Z,10.90
2023-04-21T10:12:51.136Z,10.23
2023-04-21T10:15:35.937Z,10.05
2023-04-21T10:18:31.913Z,11.43
2023-04-21T10:21:09.623Z,11.38
2023-04-21T10:23:44.818Z,11.20
2023-04-21T10:26:25.266Z,10.82
2023-04-21T10:29:00.614Z,10.70
2023-04-21T10:31:35.311Z,8.48
2023-04-21T10:34:08.350Z,9.52
2023-04-21T10:36:36.061Z,9.68
2023-04-21T10:39:04.227Z,9.55
2023-04-21T10:41:32.803Z,8.80
2023-04-21T10:44:00.145Z,10.20
2023-04-21T10:46:40.389Z,10.55
2023-04-21T10:49:24.314Z,8.55
2023-04-21T10:52:00.600Z,9.77
2023-04-21T10:54:36.897Z,9.30
2023-04-21T10:57:08.140Z,9.10
2023-04-21T10:59:36.034Z,13.85
2023-04-21T11:02:04.997Z,7.82
2023-04-21T11:04:32.730Z,8.50
2023-04-21T11:07:12.099Z,8.43
2023-04-21T11:09:40.440Z,11.90
2023-04-21T11:12:11.887Z,8.55
2023-04-21T11:14:41.627Z,10.65
2023-04-21T11:17:13.800Z,9.60
2023-04-21T11:19:45.536Z,8.75
2023-04-21T11:22:12.278Z,11.02
2023-04-21T11:24:51.391Z,9.25
2023-04-21T11:27:20.486Z,8.50
2023-04-21T11:29:47.374Z,8.98
2023-04-21T11:32:16.095Z,8.93
2023-04-21T11:34:43.372Z,10.93
2023-04-21T11:37:16.898Z,9.73
2023-04-21T11:39:44.249Z,12.98
2023-04-21T11:42:14.151Z,10.55
2023-04-21T11:44:45.417Z,9.68
2023-04-21T11:47:14.374Z,10.15
2023-04-21T11:49:49.277Z,8.80
2023-04-21T11:52:24.783Z,7.93
2023-04-21T11:55:02.017Z,12.52
2023-04-21T11:57:30.853Z,9.32
2023-04-21T12:00:02.337Z,10.43
2023-04-21T12:02:31.312Z,9.95
2023-04-21T12:05:06.941Z,7.45
2023-04-21T12:07:44.731Z,9.15
2023-04-21T12:10:13.435Z,10.48
2023-04-21T12:12:42.062Z,9.48
2023-04-21T12:15:11.098Z,8.77
2023-04-21T12:17:45.327Z,9.20
2023-04-21T12:20:15.259Z,9.55
2023-04-21T12:22:41.927Z,9.25
2023-04-21T12:25:11.643Z,10.73
2023-04-21T12:27:38.379Z,8.60
2023-04-21T12:30:06.141Z,11.32
2023-04-21T12:32:32.930Z,11.13
2023-04-21T12:35:00.630Z,9.43
2023-04-21T12:37:27.344Z,9.10
2023-04-21T12:39:54.036Z,10.73
2023-04-21T12:42:20.829Z,7.95
2023-04-21T12:44:47.509Z,9.32
2023-04-21T12:47:14.254Z,7.55
2023-04-21T12:49:47.232Z,9.85
2023-04-21T12:52:13.923Z,9.00
2023-04-21T12:54:40.708Z,8.90
2023-04-21T12:57:07.480Z,9.55
2023-04-21T12:59:34.150Z,11.25
2023-04-21T13:02:00.963Z,8.98
2023-04-21T13:04:28.020Z,9.15
2023-04-21T13:06:55.006Z,8.40
2023-04-21T13:09:21.731Z,10.00
2023-04-21T13:11:48.365Z,9.38
2023-04-21T13:14:16.108Z,9.95
2023-04-21T13:16:43.968Z,8.50
2023-04-21T13:19:11.380Z,9.18
2023-04-21T13:21:38.038Z,9.27
2023-04-21T13:24:04.843Z,8.48
2023-04-21T13:26:33.760Z,8.15
2023-04-21T13:29:03.383Z,8.73
2023-04-21T13:31:30.665Z,7.15
2023-04-21T13:33:59.591Z,7.90
2023-04-21T13:36:26.870Z,10.70
2023-04-21T13:38:56.571Z,9.98
2023-04-21T13:41:23.868Z,8.40
2023-04-21T13:44:01.177Z,9.55
2023-04-21T13:46:28.029Z,11.65
2023-04-21T13:48:55.510Z,8.82
2023-04-21T13:51:22.241Z,7.90
2023-04-21T13:53:49.101Z,7.72
2023-04-21T13:56:17.519Z,8.18
2023-04-21T13:58:44.650Z,8.98
2023-04-21T14:01:15.097Z,8.90
2023-04-21T14:03:42.765Z,7.95
2023-04-21T14:06:09.706Z,9.40
2023-04-21T14:08:36.315Z,8.13
2023-04-21T14:11:04.817Z,8.13
2023-04-21T14:16:01.715Z,8.23
2023-04-21T14:18:28.397Z,8.35
2023-04-21T14:20:55.087Z,8.25
2023-04-21T14:23:21.672Z,8.70
2023-04-21T14:25:51.079Z,6.35
2023-04-21T14:28:20.117Z,8.70
2023-04-21T14:30:46.794Z,8.63
2023-04-21T14:33:13.606Z,7.35
2023-04-21T14:35:46.549Z,6.55
2023-04-21T14:38:13.666Z,10.50
2023-04-21T14:40:44.366Z,6.88
2023-04-21T14:43:11.560Z,8.95
2023-04-21T14:45:38.564Z,7.72
2023-04-21T14:48:06.360Z,10.30
2023-04-21T14:50:33.330Z,7.38
2023-04-21T14:53:00.004Z,7.78
2023-04-21T14:55:26.617Z,8.25
2023-04-21T14:58:04.301Z,7.53
2023-04-21T15:00:32.430Z,8.55
2023-04-21T15:02:59.345Z,7.22
2023-04-21T15:05:26.265Z,11.10
2023-04-21T15:07:52.997Z,9.32
2023-04-21T15:10:19.987Z,7.88
2023-04-21T15:12:46.862Z,9.98
2023-04-21T15:15:14.312Z,6.43
2023-04-21T15:17:45.803Z,7.90
2023-04-21T15:20:12.635Z,7.88
2023-04-21T15:22:42.788Z,7.50
2023-04-21T15:25:09.789Z,6.47
2023-04-21T15:27:36.906Z,7.80
2023-04-21T15:30:04.729Z,8.02
2023-04-21T15:32:31.900Z,7.78
2023-04-21T15:34:58.554Z,7.45
2023-04-21T15:37:26.025Z,6.40
2023-04-21T15:39:53.188Z,7.43
2023-04-21T15:42:20.590Z,7.05
2023-04-21T15:44:47.360Z,8.07
2023-04-21T15:47:16.415Z,8.85
2023-04-21T15:49:43.583Z,6.07
2023-04-21T15:52:11.043Z,7.25
2023-04-21T15:54:38.147Z,7.35
2023-04-21T15:57:05.661Z,6.97
2023-04-21T15:59:32.379Z,6.97
2023-04-21T16:01:59.524Z,27.27
2023-04-21T16:04:32.450Z,24.27
2023-04-21T16:06:59.349Z,9.73
2023-04-21T16:09:26.363Z,6.90
2023-04-21T16:11:53.283Z,6.43
2023-04-21T16:14:19.969Z,10.05
2023-04-21T16:16:46.907Z,10.88
2023-04-21T16:19:13.790Z,6.57
2023-04-21T16:21:40.742Z,9.10
2023-04-21T16:24:08.627Z,5.95
2023-04-21T16:26:36.395Z,6.93
2023-04-21T16:29:03.270Z,7.55
2023-04-21T16:31:30.055Z,10.40
2023-04-21T16:33:59.935Z,6.90
2023-04-21T16:36:32.656Z,11.38
2023-04-21T16:38:59.953Z,7.32
2023-04-21T16:41:26.716Z,8.88
2023-04-21T16:43:53.437Z,6.47
2023-04-21T16:46:20.328Z,6.68
2023-04-21T16:48:47.113Z,7.97
2023-04-21T16:51:13.989Z,9.10
2023-04-21T16:53:41.973Z,7.00
2023-04-21T16:56:09.278Z,8.57
2023-04-21T16:58:37.394Z,8.95
2023-04-21T17:01:04.933Z,8.02
2023-04-21T17:03:31.950Z,7.30
2023-04-21T17:05:58.741Z,6.85
2023-04-21T17:08:25.450Z,6.15
2023-04-21T17:10:52.116Z,11.55
2023-04-21T17:13:18.773Z,8.93
2023-04-21T17:15:45.714Z,7.82
2023-04-21T17:18:12.403Z,6.28
2023-04-21T17:20:39.157Z,9.63
2023-04-21T17:23:06.002Z,8.77
2023-04-21T17:25:32.726Z,9.60
2023-04-21T17:27:59.481Z,8.32
2023-04-21T17:30:26.295Z,8.35
2023-04-21T17:33:04.194Z,6.82
2023-04-21T17:35:45.986Z,7.38
2023-04-21T17:38:19.333Z,7.97
2023-04-21T17:40:49.771Z,6.68
2023-04-21T17:43:16.387Z,9.20
2023-04-21T17:45:46.175Z,6.70
2023-04-21T17:48:16.745Z,5.25
2023-04-21T17:50:43.441Z,7.20
2023-04-21T17:53:11.237Z,7.60
2023-04-21T17:55:40.280Z,7.47
2023-04-21T17:58:08.758Z,7.53
2023-04-21T18:00:37.810Z,9.13
2023-04-21T18:03:07.221Z,9.07
2023-04-21T18:05:34.244Z,8.50
2023-04-21T18:08:01.210Z,7.53
2023-04-21T18:10:29.758Z,6.45
2023-04-21T18:12:56.878Z,6.95
2023-04-21T18:15:24.106Z,8.73
2023-04-21T18:17:52.852Z,8.27
2023-04-21T18:20:20.169Z,8.55
2023-04-21T18:22:47.352Z,7.63
2023-04-21T18:25:15.281Z,7.85
2023-04-21T18:27:42.338Z,6.43
2023-04-21T18:30:09.836Z,6.35
2023-04-21T18:32:37.181Z,9.25
2023-04-21T18:35:06.417Z,5.45
2023-04-21T18:37:33.523Z,7.38
2023-04-21T18:40:01.215Z,8.57
2023-04-21T18:42:32.651Z,6.07
2023-04-21T18:45:02.218Z,7.22
2023-04-21T18:47:30.690Z,6.93
2023-04-21T18:49:58.876Z,5.50
2023-04-21T18:52:26.259Z,5.65
2023-04-21T18:54:52.961Z,9.18
2023-04-21T18:57:23.490Z,5.05
2023-04-21T18:59:56.815Z,7.53
2023-04-21T19:02:24.693Z,7.57
2023-04-21T19:04:55.567Z,7.35
2023-04-21T19:07:22.916Z,8.15
2023-04-21T19:09:49.999Z,7.47
2023-04-21T19:12:17.614Z,7.53
2023-04-21T19:14:47.458Z,8.50
2023-04-21T19:17:15.556Z,7.10
2023-04-21T19:19:43.579Z,8.45
2023-04-21T19:22:10.387Z,7.10
2023-04-21T19:24:38.390Z,8.23
2023-04-21T19:27:06.182Z,6.18
2023-04-21T19:29:37.474Z,8.05
2023-04-21T19:32:04.500Z,8.32
2023-04-21T19:34:31.306Z,7.93
2023-04-21T19:36:58.081Z,6.18
2023-04-21T19:39:24.760Z,8.02
2023-04-21T19:41:54.279Z,6.50
2023-04-21T19:44:20.977Z,7.68
2023-04-21T19:46:48.231Z,6.60
2023-04-21T19:49:14.985Z,7.25
2023-04-21T19:51:41.648Z,7.00
2023-04-21T19:54:12.093Z,6.93
2023-04-21T19:56:39.760Z,7.20
2023-04-21T19:59:06.984Z,6.35
2023-04-21T20:01:34.316Z,9.07
2023-04-21T20:04:01.387Z,7.68
2023-04-21T20:06:28.596Z,7.18
2023-04-21T20:08:55.687Z,7.85
2023-04-21T20:11:23.110Z,7.20
2023-04-21T20:13:50.153Z,7.15
2023-04-21T20:16:19.761Z,7.63
2023-04-21T20:18:46.640Z,7.40
2023-04-21T20:21:13.370Z,8.02
2023-04-21T20:23:40.814Z,7.05
2023-04-21T20:26:07.465Z,8.30
2023-04-21T20:28:34.114Z,7.30
2023-04-21T20:31:04.164Z,6.85
2023-04-21T20:33:31.037Z,7.30
2023-04-21T20:35:58.147Z,5.88
2023-04-21T20:38:24.832Z,6.40
2023-04-21T20:40:53.109Z,7.65
2023-04-21T20:43:20.166Z,6.53
2023-04-21T20:45:47.485Z,8.70
2023-04-21T20:48:14.173Z,6.72
2023-04-21T20:50:41.735Z,8.13
2023-04-21T20:53:10.138Z,9.07
2023-04-21T20:55:36.952Z,8.95
2023-04-21T20:58:06.572Z,7.28
2023-04-21T21:00:34.536Z,5.93
2023-04-21T21:03:01.474Z,7.93
2023-04-21T21:05:33.364Z,6.95
2023-04-21T21:08:00.191Z,7.15
2023-04-21T21:10:27.176Z,7.68
2023-04-21T21:12:53.962Z,7.90
2023-04-21T21:15:20.779Z,6.05
2023-04-21T21:17:47.505Z,10.20
2023-04-21T21:20:14.326Z,8.52
2023-04-21T21:22:41.046Z,7.78
2023-04-21T21:25:08.142Z,8.07
2023-04-21T21:27:34.901Z,9.32
2023-04-21T21:30:02.274Z,6.82
2023-04-21T21:32:28.890Z,8.15
2023-04-21T21:34:55.900Z,7.47
2023-04-21T21:37:24.367Z,5.97
2023-04-21T21:39:51.029Z,6.70
2023-04-21T21:42:19.819Z,5.97
2023-04-21T21:44:46.492Z,8.93
2023-04-21T21:47:13.217Z,7.28
2023-04-21T21:49:40.185Z,7.75
2023-04-21T21:52:07.068Z,10.18
2023-04-21T21:54:33.694Z,7.45
2023-04-21T21:57:01.273Z,7.47
2023-04-21T21:59:28.112Z,6.38
2023-04-21T22:01:54.907Z,8.40
2023-04-21T22:04:21.719Z,5.95
2023-04-21T22:06:48.767Z,7.38
2023-04-21T22:09:15.862Z,7.85
2023-04-21T22:11:42.572Z,8.02
2023-04-21T22:14:21.848Z,7.28
2023-04-21T22:16:50.906Z,9.43
2023-04-21T22:19:20.241Z,6.93
2023-04-21T22:21:47.074Z,6.05
2023-04-21T22:24:13.822Z,6.40
2023-04-21T22:26:40.873Z,7.05
2023-04-21T22:29:07.668Z,6.65
2023-04-21T22:31:34.523Z,7.72
2023-04-21T22:34:01.314Z,8.57
2023-04-21T22:36:28.035Z,6.93
2023-04-21T22:38:54.720Z,6.80
2023-04-21T22:41:21.368Z,6.97
2023-04-21T22:43:48.264Z,6.47
2023-04-21T22:46:15.277Z,6.25
2023-04-21T22:48:41.984Z,6.70
2023-04-21T22:51:08.693Z,6.82
2023-04-21T22:53:35.517Z,6.30
2023-04-21T22:56:02.270Z,9.18
2023-04-21T22:58:28.988Z,6.97
2023-04-21T23:00:55.778Z,6.30
2023-04-21T23:03:23.776Z,7.07
2023-04-21T23:05:50.735Z,7.25
2023-04-21T23:08:17.412Z,5.28
2023-04-21T23:10:44.114Z,6.35
2023-04-21T23:13:10.733Z,6.75
2023-04-21T23:15:37.430Z,6.85
2023-04-21T23:18:04.499Z,5.90
2023-04-21T23:20:31.650Z,6.93
2023-04-21T23:22:58.613Z,8.00
2023-04-21T23:25:25.434Z,5.43
2023-04-21T23:27:52.067Z,6.78
2023-04-21T23:30:19.044Z,4.65
2023-04-21T23:32:45.972Z,8.27
2023-04-21T23:35:12.792Z,4.75
2023-04-21T23:37:39.730Z,4.53
2023-04-21T23:40:09.205Z,5.30
2023-04-21T23:42:36.239Z,5.35
2023-04-21T23:45:03.629Z,8.85
2023-04-21T23:47:30.540Z,5.18
2023-04-21T23:49:57.593Z,6.68
2023-04-21T23:52:24.332Z,4.45
2023-04-21T23:54:51.055Z,5.22
2023-04-21T23:57:18.502Z,5.50
2023-04-21T23:59:45.750Z,5.95
